createdAt,value
2022-10-11T00:00:59.494Z,21.70
2022-10-11T00:03:37.926Z,22.00
2022-10-11T00:06:07.309Z,24.40
2022-10-11T00:08:36.084Z,17.80
2022-10-11T00:11:06.873Z,22.20
2022-10-11T00:13:35.277Z,17.60
2022-10-11T00:16:08.112Z,19.80
2022-10-11T00:18:37.330Z,16.60
2022-10-11T00:21:08.364Z,22.60
2022-10-11T00:23:36.250Z,14.70
2022-10-11T00:26:05.975Z,17.70
2022-10-11T00:28:34.851Z,15.30
2022-10-11T00:31:06.690Z,16.30
2022-10-11T00:33:35.471Z,20.40
2022-10-11T00:36:04.727Z,19.10
2022-10-11T00:38:33.717Z,17.60
2022-10-11T00:41:02.142Z,17.00
2022-10-11T00:43:32.307Z,15.60
2022-10-11T00:46:25.086Z,18.70
2022-10-11T00:49:01.335Z,18.20
2022-10-11T00:51:38.853Z,17.60
2022-10-11T00:54:10.922Z,17.10
2022-10-11T00:56:40.796Z,14.20
2022-10-11T00:59:16.072Z,15.10
2022-10-11T01:01:44.427Z,15.60
2022-10-11T01:04:12.949Z,17.60
2022-10-11T01:06:41.892Z,17.10
2022-10-11T01:09:10.969Z,18.40
2022-10-11T01:11:42.660Z,17.70
2022-10-11T01:14:32.757Z,17.10
2022-10-11T01:17:22.483Z,17.40
2022-10-11T01:20:17.011Z,16.20
2022-10-11T01:22:54.526Z,19.10
2022-10-11T01:25:43.908Z,15.50
2022-10-11T01:28:27.831Z,17.90
2022-10-11T01:31:01.817Z,15.70
2022-10-11T01:33:40.006Z,17.90
2022-10-11T01:36:27.884Z,20.00
2022-10-11T01:39:08.295Z,18.60
2022-10-11T01:41:46.311Z,21.40
2022-10-11T01:44:14.734Z,18.70
2022-10-11T01:46:43.060Z,23.80
2022-10-11T01:49:11.182Z,19.30
2022-10-11T01:51:46.996Z,16.20
2022-10-11T01:54:24.577Z,20.20
2022-10-11T01:57:19.552Z,17.40
2022-10-11T02:00:19.353Z,22.20
2022-10-11T02:03:16.654Z,21.50
2022-10-11T02:06:04.632Z,19.40
2022-10-11T02:09:07.182Z,16.70
2022-10-11T02:11:38.675Z,17.40
2022-10-11T02:14:11.858Z,17.30
2022-10-11T02:16:45.079Z,18.30
2022-10-11T02:19:17.115Z,16.20
2022-10-11T02:21:49.027Z,17.60
2022-10-11T02:24:22.654Z,19.10
2022-10-11T02:26:54.906Z,14.80
2022-10-11T02:29:26.960Z,15.90
2022-10-11T02:31:59.118Z,18.40
2022-10-11T02:34:40.233Z,14.30
2022-10-11T02:37:39.837Z,14.60
2022-10-11T02:40:21.834Z,17.00
2022-10-11T02:42:59.454Z,15.00
2022-10-11T02:45:36.558Z,15.50
2022-10-11T02:48:06.726Z,14.60
2022-10-11T02:50:34.716Z,14.80
2022-10-11T02:53:04.965Z,12.90
2022-10-11T02:55:33.043Z,11.70
2022-10-11T02:58:01.548Z,12.50
2022-10-11T03:00:29.977Z,14.40
2022-10-11T03:02:57.981Z,12.90
2022-10-11T03:05:26.142Z,11.10
2022-10-11T03:07:54.354Z,13.30
2022-10-11T03:10:22.517Z,11.70
2022-10-11T03:12:50.735Z,12.20
2022-10-11T03:15:18.657Z,10.10
2022-10-11T03:17:46.591Z,15.10
2022-10-11T03:20:14.552Z,13.60
2022-10-11T03:22:42.311Z,11.60
2022-10-11T03:25:10.339Z,14.30
2022-10-11T03:27:40.230Z,16.20
2022-10-11T03:30:14.207Z,11.50
2022-10-11T03:32:45.765Z,12.10
2022-10-11T03:35:13.971Z,11.10
2022-10-11T03:37:42.158Z,12.70
2022-10-11T03:40:12.552Z,13.30
2022-10-11T03:42:40.785Z,12.50
2022-10-11T03:45:10.051Z,9.90
2022-10-11T03:47:39.550Z,12.00
2022-10-11T03:50:09.754Z,12.00
2022-10-11T03:52:37.831Z,10.10
2022-10-11T03:55:07.512Z,11.30
2022-10-11T03:57:35.878Z,12.00
2022-10-11T04:00:05.908Z,13.30
2022-10-11T04:02:38.974Z,14.10
2022-10-11T04:05:07.690Z,11.90
2022-10-11T04:07:35.981Z,11.50
2022-10-11T04:10:04.271Z,13.90
2022-10-11T04:12:32.660Z,13.20
2022-10-11T04:15:00.772Z,12.40
2022-10-11T04:17:29.698Z,8.20
2022-10-11T04:19:57.952Z,13.00
2022-10-11T04:22:28.313Z,9.80
2022-10-11T04:24:56.244Z,9.80
2022-10-11T04:27:24.256Z,10.30
2022-10-11T04:29:52.480Z,8.30
2022-10-11T04:32:20.744Z,10.30
2022-10-11T04:34:48.554Z,9.80
2022-10-11T04:37:17.267Z,12.40
2022-10-11T04:39:45.335Z,11.20
2022-10-11T04:42:13.578Z,6.90
2022-10-11T04:44:41.610Z,12.30
2022-10-11T04:47:09.933Z,9.70
2022-10-11T04:49:38.161Z,12.30
2022-10-11T04:52:06.248Z,12.30
2022-10-11T04:54:34.098Z,7.70
2022-10-11T04:57:02.331Z,10.40
2022-10-11T04:59:31.156Z,13.20
2022-10-11T05:01:59.250Z,8.40
2022-10-11T05:04:27.720Z,9.00
2022-10-11T05:06:55.697Z,11.90
2022-10-11T05:09:24.234Z,11.60
2022-10-11T05:11:52.568Z,13.30
2022-10-11T05:14:20.647Z,14.60
2022-10-11T05:16:49.905Z,12.60
2022-10-11T05:19:20.045Z,11.20
2022-10-11T05:21:48.114Z,12.90
2022-10-11T05:24:16.222Z,14.90
2022-10-11T05:26:44.750Z,13.70
2022-10-11T05:29:12.669Z,14.90
2022-10-11T05:31:41.197Z,13.20
2022-10-11T05:34:10.372Z,9.10
2022-10-11T05:36:39.130Z,11.70
2022-10-11T05:39:07.546Z,14.60
2022-10-11T05:41:36.459Z,14.80
2022-10-11T05:44:04.648Z,15.40
2022-10-11T05:46:34.433Z,14.20
2022-10-11T05:49:05.015Z,13.10
2022-10-11T05:51:33.127Z,14.60
2022-10-11T05:54:02.371Z,11.70
2022-10-11T05:56:30.610Z,14.60
2022-10-11T05:59:02.226Z,14.20
2022-10-11T06:01:31.170Z,11.10
2022-10-11T06:03:59.142Z,14.40
2022-10-11T06:06:27.329Z,13.40
2022-10-11T06:08:55.722Z,11.70
2022-10-11T06:11:27.037Z,16.80
2022-10-11T06:13:56.297Z,11.40
2022-10-11T06:16:25.607Z,15.10
2022-10-11T06:18:55.123Z,13.50
2022-10-11T06:21:24.561Z,12.70
2022-10-11T06:23:58.302Z,13.80
2022-10-11T06:26:30.237Z,12.30
2022-10-11T06:28:59.409Z,13.60
2022-10-11T06:31:28.018Z,14.40
2022-10-11T06:33:55.986Z,16.50
2022-10-11T06:36:24.027Z,12.60
2022-10-11T06:38:53.094Z,16.00
2022-10-11T06:41:25.149Z,12.60
2022-10-11T06:43:53.977Z,11.80
2022-10-11T06:46:24.983Z,10.50
2022-10-11T06:48:57.338Z,17.40
2022-10-11T06:51:29.769Z,11.00
2022-10-11T06:54:00.575Z,12.10
2022-10-11T06:56:30.502Z,11.90
2022-10-11T06:59:00.205Z,17.00
2022-10-11T07:01:28.963Z,14.10
2022-10-11T07:04:00.845Z,14.70
2022-10-11T07:06:31.736Z,13.20
2022-10-11T07:09:01.471Z,12.80
2022-10-11T07:11:30.392Z,15.10
2022-10-11T07:14:01.534Z,18.30
2022-10-11T07:16:31.507Z,14.90
2022-10-11T07:19:01.661Z,14.40
2022-10-11T07:21:34.362Z,11.30
2022-10-11T07:24:04.335Z,11.30
2022-10-11T07:26:39.307Z,13.40
2022-10-11T07:29:09.756Z,9.70
2022-10-11T07:31:41.187Z,12.00
2022-10-11T07:34:11.007Z,11.00
2022-10-11T07:36:41.146Z,13.80
2022-10-11T07:39:10.196Z,12.40
2022-10-11T07:41:44.625Z,9.60
2022-10-11T07:44:15.235Z,11.40
2022-10-11T07:46:44.758Z,14.90
2022-10-11T07:49:14.896Z,12.30
2022-10-11T07:51:44.361Z,12.30
2022-10-11T07:54:12.593Z,15.80
2022-10-11T07:56:40.718Z,14.10
2022-10-11T07:59:11.085Z,12.00
2022-10-11T08:01:39.272Z,15.20
2022-10-11T08:04:07.517Z,12.60
2022-10-11T08:06:36.726Z,14.40
2022-10-11T08:09:07.030Z,18.00
2022-10-11T08:11:38.276Z,11.00
2022-10-11T08:14:09.141Z,16.30
2022-10-11T08:16:39.123Z,14.60
2022-10-11T08:19:07.702Z,16.50
2022-10-11T08:21:37.048Z,15.70
2022-10-11T08:24:06.669Z,14.70
2022-10-11T08:26:35.507Z,15.40
2022-10-11T08:29:05.418Z,18.50
2022-10-11T08:31:35.224Z,13.60
2022-10-11T08:34:04.315Z,17.10
2022-10-11T08:36:33.113Z,13.90
2022-10-11T08:39:01.832Z,12.70
2022-10-11T08:41:54.864Z,15.60
2022-10-11T08:45:09.026Z,14.50
2022-10-11T08:47:34.134Z,15.40
2022-10-11T08:50:04.030Z,18.00
2022-10-11T08:52:38.780Z,14.30
2022-10-11T08:55:32.783Z,14.00
2022-10-11T08:58:02.342Z,13.70
2022-10-11T09:00:34.396Z,14.10
2022-10-11T09:03:29.808Z,16.80
2022-10-11T09:06:12.644Z,15.40
2022-10-11T09:09:00.507Z,14.10
2022-10-11T09:12:14.409Z,14.20
2022-10-11T09:15:03.159Z,19.90
2022-10-11T09:17:40.212Z,15.30
2022-10-11T09:20:24.208Z,12.10
2022-10-11T09:23:21.729Z,16.70
2022-10-11T09:25:55.285Z,13.50
2022-10-11T09:28:50.928Z,14.20
2022-10-11T09:31:18.987Z,14.10
2022-10-11T09:33:48.886Z,13.40
2022-10-11T09:36:25.755Z,13.40
2022-10-11T09:39:07.059Z,16.90
2022-10-11T09:41:53.801Z,12.10
2022-10-11T09:44:27.698Z,13.80
2022-10-11T09:46:57.141Z,11.90
2022-10-11T09:49:40.982Z,13.60
2022-10-11T09:52:18.305Z,12.00
2022-10-11T09:54:49.491Z,14.30
2022-10-11T09:57:37.060Z,10.30
2022-10-11T10:00:14.338Z,13.40
2022-10-11T10:02:44.973Z,11.60
2022-10-11T10:05:22.047Z,12.20
2022-10-11T10:08:04.487Z,12.90
2022-10-11T10:11:00.129Z,9.60
2022-10-11T10:13:52.976Z,9.50
2022-10-11T10:16:28.602Z,10.60
2022-10-11T10:19:04.872Z,10.30
2022-10-11T10:21:36.923Z,10.20
2022-10-11T10:24:09.842Z,9.10
2022-10-11T10:26:40.131Z,11.20
2022-10-11T10:29:08.305Z,10.00
2022-10-11T10:32:12.400Z,11.30
2022-10-11T10:34:35.489Z,12.60
2022-10-11T10:37:36.311Z,11.60
2022-10-11T10:40:14.472Z,11.20
2022-10-11T10:42:42.531Z,7.90
2022-10-11T10:45:21.238Z,12.10
2022-10-11T10:48:46.970Z,6.80
2022-10-11T10:51:58.233Z,8.40
2022-10-11T10:55:01.050Z,8.90
2022-10-11T10:57:37.156Z,8.70
2022-10-11T11:00:17.265Z,10.20
2022-10-11T11:03:01.961Z,10.60
2022-10-11T11:05:41.256Z,10.70
2022-10-11T11:08:28.356Z,17.40
2022-10-11T11:11:20.679Z,11.50
2022-10-11T11:14:04.114Z,10.40
2022-10-11T11:16:42.867Z,6.90
2022-10-11T11:19:38.292Z,7.90
2022-10-11T11:22:32.812Z,10.30
2022-10-11T11:25:16.744Z,10.70
2022-10-11T11:28:01.339Z,6.50
2022-10-11T11:30:47.246Z,8.30
2022-10-11T11:33:57.173Z,10.00
2022-10-11T11:36:40.904Z,8.50
2022-10-11T11:39:35.496Z,11.70
2022-10-11T11:42:16.518Z,9.90
2022-10-11T11:44:48.668Z,8.40
2022-10-11T11:47:23.991Z,8.20
2022-10-11T11:49:59.844Z,7.70
2022-10-11T11:52:36.504Z,7.60
2022-10-11T11:55:18.719Z,9.10
2022-10-11T11:58:06.035Z,9.50
2022-10-11T12:00:59.103Z,8.40
2022-10-11T12:03:35.932Z,7.10
2022-10-11T12:06:24.227Z,7.90
2022-10-11T12:09:18.824Z,7.10
2022-10-11T12:11:58.555Z,9.20
2022-10-11T12:14:33.650Z,5.90
2022-10-11T12:17:18.260Z,9.30
2022-10-11T12:20:10.347Z,9.30
2022-10-11T12:22:40.451Z,9.60
2022-10-11T12:25:18.425Z,9.50
2022-10-11T12:27:53.149Z,8.90
2022-10-11T12:30:53.518Z,8.60
2022-10-11T12:33:33.870Z,7.30
2022-10-11T12:36:22.196Z,9.00
2022-10-11T12:39:19.431Z,8.50
2022-10-11T12:41:56.554Z,9.50
2022-10-11T12:44:27.507Z,9.60
2022-10-11T12:46:59.848Z,10.80
2022-10-11T12:50:00.641Z,10.20
2022-10-11T12:52:56.498Z,9.70
2022-10-11T12:55:47.051Z,8.20
2022-10-11T12:58:32.069Z,9.60
2022-10-11T13:01:00.923Z,7.70
2022-10-11T13:03:42.626Z,9.60
2022-10-11T13:06:17.928Z,8.80
2022-10-11T13:08:53.495Z,9.10
2022-10-11T13:11:27.154Z,13.80
2022-10-11T13:13:59.599Z,7.80
2022-10-11T13:16:45.709Z,8.60
2022-10-11T13:19:16.606Z,5.90
2022-10-11T13:21:52.042Z,10.70
2022-10-11T13:24:23.392Z,12.00
2022-10-11T13:26:55.345Z,9.60
2022-10-11T13:29:34.587Z,8.70
2022-10-11T13:32:07.979Z,8.00
2022-10-11T13:34:39.778Z,6.60
2022-10-11T13:37:16.829Z,8.50
2022-10-11T13:39:48.268Z,7.50
2022-10-11T13:42:29.860Z,7.00
2022-10-11T13:45:02.190Z,6.90
2022-10-11T13:47:33.537Z,8.00
2022-10-11T13:50:36.290Z,7.90
2022-10-11T13:53:12.440Z,9.20
2022-10-11T13:56:01.478Z,8.30
2022-10-11T13:58:46.576Z,13.90
2022-10-11T14:01:23.139Z,7.90
2022-10-11T14:04:04.148Z,9.50
2022-10-11T14:06:49.437Z,8.80
2022-10-11T14:09:39.669Z,6.00
2022-10-11T14:12:25.961Z,10.60
2022-10-11T14:14:54.547Z,10.80
2022-10-11T14:17:38.608Z,12.90
2022-10-11T14:20:29.550Z,8.70
2022-10-11T14:23:00.600Z,12.80
2022-10-11T14:25:30.097Z,9.40
2022-10-11T14:27:59.617Z,9.10
2022-10-11T14:30:31.696Z,9.70
2022-10-11T14:33:02.111Z,15.10
2022-10-11T14:35:32.748Z,8.00
2022-10-11T14:38:01.449Z,14.30
2022-10-11T14:40:32.159Z,11.60
2022-10-11T14:43:01.364Z,11.70
2022-10-11T14:45:30.479Z,8.20
2022-10-11T14:47:59.145Z,10.30
2022-10-11T14:50:50.397Z,7.50
2022-10-11T14:53:18.871Z,9.60
2022-10-11T14:55:48.973Z,8.00
2022-10-11T14:58:19.943Z,11.30
2022-10-11T15:00:48.503Z,12.00
2022-10-11T15:03:16.813Z,10.10
2022-10-11T15:05:45.837Z,9.60
2022-10-11T15:08:15.533Z,9.40
2022-10-11T15:10:44.224Z,8.50
2022-10-11T15:13:12.729Z,6.60
2022-10-11T15:15:41.959Z,9.50
2022-10-11T15:18:13.731Z,12.50
2022-10-11T15:20:45.631Z,12.10
2022-10-11T15:23:14.314Z,9.40
2022-10-11T15:25:43.171Z,10.90
2022-10-11T15:28:25.362Z,11.80
2022-10-11T15:30:54.414Z,12.70
2022-10-11T15:33:23.614Z,12.50
2022-10-11T15:35:52.557Z,14.90
2022-10-11T15:38:24.726Z,12.40
2022-10-11T15:40:54.902Z,10.80
2022-10-11T15:43:24.977Z,11.70
2022-10-11T15:45:56.019Z,12.10
2022-10-11T15:48:26.985Z,11.60
2022-10-11T15:50:57.087Z,14.10
2022-10-11T15:53:31.642Z,12.80
2022-10-11T15:56:04.550Z,13.10
2022-10-11T15:58:38.959Z,14.80
2022-10-11T16:01:15.052Z,17.70
2022-10-11T16:03:44.891Z,16.80
2022-10-11T16:06:19.425Z,22.00
2022-10-11T16:08:48.317Z,39.10
2022-10-11T16:11:17.008Z,27.90
2022-10-11T16:13:45.392Z,16.40
2022-10-11T16:16:14.794Z,16.50
2022-10-11T16:18:43.518Z,15.60
2022-10-11T16:21:15.772Z,16.80
2022-10-11T16:23:44.080Z,21.90
2022-10-11T16:26:15.253Z,22.70
2022-10-11T16:28:44.072Z,18.20
2022-10-11T16:31:21.127Z,22.90
2022-10-11T16:33:50.704Z,19.30
2022-10-11T16:36:40.950Z,22.50
2022-10-11T16:39:16.577Z,19.50
2022-10-11T16:41:45.865Z,18.10
2022-10-11T16:44:20.317Z,21.60
2022-10-11T16:46:49.335Z,24.60
2022-10-11T16:49:20.025Z,18.10
2022-10-11T16:51:50.330Z,18.60
2022-10-11T16:54:20.727Z,16.60
2022-10-11T16:56:54.668Z,21.50
2022-10-11T16:59:22.973Z,34.80
2022-10-11T17:01:51.760Z,38.10
2022-10-11T17:04:21.583Z,16.30
2022-10-11T17:06:50.912Z,16.60
2022-10-11T17:09:24.066Z,14.60
2022-10-11T17:11:55.294Z,19.60
2022-10-11T17:14:25.402Z,25.30
2022-10-11T17:16:57.935Z,25.10
2022-10-11T17:41:09.375Z,16.80
2022-10-11T17:43:38.388Z,14.20
2022-10-11T17:46:07.590Z,18.60
2022-10-11T17:48:39.391Z,17.20
2022-10-11T17:51:17.914Z,15.20
2022-10-11T17:53:50.118Z,13.20
2022-10-11T17:56:28.130Z,14.10
2022-10-11T17:58:59.859Z,23.90
2022-10-11T18:01:30.342Z,13.60
2022-10-11T18:04:04.704Z,24.20
2022-10-11T18:06:38.542Z,20.40
2022-10-11T18:09:08.663Z,26.50
2022-10-11T18:11:37.151Z,16.70
2022-10-11T18:14:05.642Z,19.00
2022-10-11T18:16:34.937Z,24.70
2022-10-11T18:19:13.377Z,25.10
2022-10-11T18:21:41.571Z,16.30
2022-10-11T18:24:17.141Z,20.80
2022-10-11T18:26:46.960Z,22.00
2022-10-11T18:29:15.679Z,18.70
2022-10-11T18:31:45.832Z,19.60
2022-10-11T18:34:16.351Z,21.90
2022-10-11T18:36:45.468Z,25.10
2022-10-11T18:39:15.183Z,22.90
2022-10-11T18:41:44.809Z,22.80
2022-10-11T18:44:15.513Z,24.70
2022-10-11T18:46:45.569Z,32.90
2022-10-11T18:49:17.986Z,29.40
2022-10-11T18:51:50.222Z,37.50
2022-10-11T18:54:21.200Z,31.80
2022-10-11T18:57:33.497Z,36.80
2022-10-11T19:00:11.681Z,39.70
2022-10-11T19:02:51.217Z,32.20
2022-10-11T19:05:19.998Z,34.90
2022-10-11T19:07:49.151Z,36.40
2022-10-11T19:10:17.216Z,44.60
2022-10-11T19:12:45.443Z,43.30
2022-10-11T19:15:14.525Z,48.40
2022-10-11T19:17:43.572Z,45.40
2022-10-11T19:20:13.108Z,49.90
2022-10-11T19:22:41.928Z,51.80
2022-10-11T19:25:11.416Z,48.50
2022-10-11T19:27:41.253Z,58.80
2022-10-11T19:30:11.015Z,49.60
2022-10-11T19:32:41.012Z,52.60
2022-10-11T19:35:10.605Z,58.40
2022-10-11T19:37:39.565Z,59.30
2022-10-11T19:40:08.960Z,50.60
2022-10-11T19:42:41.056Z,50.80
2022-10-11T19:45:11.052Z,49.40
2022-10-11T19:47:42.692Z,50.20
2022-10-11T19:50:14.545Z,53.60
2022-10-11T19:52:45.038Z,54.10
2022-10-11T19:55:13.518Z,56.00
2022-10-11T19:57:42.716Z,53.40
2022-10-11T20:00:11.362Z,53.20
2022-10-11T20:02:39.819Z,51.90
2022-10-11T20:05:08.299Z,45.40
2022-10-11T20:07:44.008Z,44.00
2022-10-11T20:10:14.674Z,46.20
2022-10-11T20:12:45.903Z,43.50
2022-10-11T20:15:14.678Z,53.10
2022-10-11T20:17:52.174Z,52.10
2022-10-11T20:20:20.589Z,52.30
2022-10-11T20:22:49.930Z,50.70
2022-10-11T20:25:18.104Z,42.10
2022-10-11T20:27:47.252Z,54.20
2022-10-11T20:30:15.958Z,61.80
2022-10-11T20:32:43.799Z,62.10
2022-10-11T20:35:11.915Z,65.20
2022-10-11T20:37:39.962Z,69.60
2022-10-11T20:40:08.610Z,60.40
2022-10-11T20:42:39.753Z,54.00
2022-10-11T20:45:07.990Z,52.20
2022-10-11T20:47:36.440Z,51.30
2022-10-11T20:50:04.857Z,58.10
2022-10-11T20:52:33.532Z,52.90
2022-10-11T20:55:02.648Z,56.60
2022-10-11T20:57:31.567Z,53.90
2022-10-11T20:59:59.937Z,47.40
2022-10-11T21:02:27.836Z,51.60
2022-10-11T21:04:56.128Z,47.30
2022-10-11T21:07:24.262Z,41.60
2022-10-11T21:09:52.500Z,39.00
2022-10-11T21:12:20.544Z,47.80
2022-10-11T21:14:49.562Z,45.30
2022-10-11T21:17:17.682Z,47.90
2022-10-11T21:19:45.971Z,44.60
2022-10-11T21:22:16.649Z,48.70
2022-10-11T21:24:44.812Z,56.30
2022-10-11T21:27:13.083Z,54.70
2022-10-11T21:29:41.468Z,48.30
2022-10-11T21:32:14.419Z,47.80
2022-10-11T21:34:44.964Z,43.10
2022-10-11T21:37:16.659Z,42.90
2022-10-11T21:39:45.585Z,43.40
2022-10-11T21:42:19.002Z,46.20
2022-10-11T21:44:47.182Z,47.10
2022-10-11T21:47:15.185Z,39.90
2022-10-11T21:49:44.209Z,40.40
2022-10-11T21:52:12.304Z,44.80
2022-10-11T21:54:40.416Z,49.60
2022-10-11T21:57:08.418Z,40.00
2022-10-11T21:59:36.886Z,43.40
2022-10-11T22:02:04.892Z,43.70
2022-10-11T22:04:33.211Z,42.10
2022-10-11T22:07:01.298Z,53.00
2022-10-11T22:09:30.078Z,44.70
2022-10-11T22:11:58.298Z,40.20
2022-10-11T22:14:26.832Z,37.10
2022-10-11T22:16:55.170Z,40.50
2022-10-11T22:19:24.163Z,41.90
2022-10-11T22:21:52.085Z,41.50
2022-10-11T22:24:19.988Z,45.90
2022-10-11T22:26:47.896Z,40.00
2022-10-11T22:29:16.212Z,35.20
2022-10-11T22:31:44.181Z,36.50
2022-10-11T22:34:12.095Z,42.10
2022-10-11T22:36:40.022Z,36.00
2022-10-11T22:39:08.382Z,35.20
2022-10-11T22:41:36.942Z,41.80
2022-10-11T22:44:08.390Z,38.00
2022-10-11T22:46:36.280Z,39.50
2022-10-11T22:49:04.346Z,31.90
2022-10-11T22:51:32.350Z,39.20
2022-10-11T22:54:00.538Z,35.50
2022-10-11T22:56:28.724Z,93.60
2022-10-11T22:58:58.702Z,52.20
2022-10-11T23:01:26.882Z,54.50
2022-10-11T23:03:55.807Z,34.50
2022-10-11T23:06:24.075Z,32.50
2022-10-11T23:08:52.075Z,40.90
2022-10-11T23:11:20.653Z,41.70
2022-10-11T23:13:49.461Z,41.60
2022-10-11T23:16:17.476Z,39.90
2022-10-11T23:18:45.427Z,40.70
2022-10-11T23:21:13.403Z,35.30
2022-10-11T23:23:41.289Z,35.60
2022-10-11T23:26:13.204Z,33.30
2022-10-11T23:28:42.274Z,32.70
2022-10-11T23:31:16.897Z,30.40
2022-10-11T23:33:46.120Z,36.70
2022-10-11T23:36:20.198Z,45.80
2022-10-11T23:38:56.849Z,40.90
2022-10-11T23:41:27.055Z,43.20
2022-10-11T23:43:55.709Z,39.50
2022-10-11T23:46:24.393Z,41.60
2022-10-11T23:48:52.274Z,36.10
2022-10-11T23:51:20.433Z,33.30
2022-10-11T23:53:48.461Z,33.20
2022-10-11T23:56:16.266Z,40.50
2022-10-11T23:58:44.199Z,42.50
